sensor_id;sensor_type;location;lat;lon;timestamp;pressure;altitude;pressure_sealevel;temperature;humidity
76321;BME280;65132;52.088;5.402;2023-03-11T00:00:37;100846.25;;;0.72;92.23
76321;BME280;65132;52.088;5.402;2023-03-11T00:03:11;100845.81;;;0.64;92.84
76321;BME280;65132;52.088;5.402;2023-03-11T00:05:45;100847.94;;;0.58;93.14
76321;BME280;65132;52.088;5.402;2023-03-11T00:08:14;100846.22;;;0.57;93.03
76321;BME280;65132;52.088;5.402;2023-03-11T00:10:43;100851.09;;;0.49;93.66
76321;BME280;65132;52.088;5.402;2023-03-11T00:13:13;100858.13;;;0.50;93.92
76321;BME280;65132;52.088;5.402;2023-03-11T00:15:45;100860.94;;;0.47;93.91
76321;BME280;65132;52.088;5.402;2023-03-11T00:18:15;100867.94;;;0.49;93.58
76321;BME280;65132;52.088;5.402;2023-03-11T00:20:44;100866.03;;;0.51;93.23
76321;BME280;65132;52.088;5.402;2023-03-11T00:23:13;100869.38;;;0.55;93.48
76321;BME280;65132;52.088;5.402;2023-03-11T00:25:45;100865.03;;;0.54;92.61
76321;BME280;65132;52.088;5.402;2023-03-11T00:28:12;100870.44;;;0.52;93.43
76321;BME280;65132;52.088;5.402;2023-03-11T00:30:43;100865.31;;;0.48;93.00
76321;BME280;65132;52.088;5.402;2023-03-11T00:33:14;100870.50;;;0.51;93.15
76321;BME280;65132;52.088;5.402;2023-03-11T00:35:41;100874.72;;;0.55;93.00
76321;BME280;65132;52.088;5.402;2023-03-11T00:38:13;100877.16;;;0.59;92.61
76321;BME280;65132;52.088;5.402;2023-03-11T00:40:42;100885.06;;;0.61;92.16
76321;BME280;65132;52.088;5.402;2023-03-11T00:43:09;100889.59;;;0.59;91.99
76321;BME280;65132;52.088;5.402;2023-03-11T00:45:38;100893.75;;;0.64;91.38
76321;BME280;65132;52.088;5.402;2023-03-11T00:48:14;100898.66;;;0.72;90.55
76321;BME280;65132;52.088;5.402;2023-03-11T00:50:41;100895.06;;;0.73;90.53
76321;BME280;65132;52.088;5.402;2023-03-11T00:53:09;100900.47;;;0.71;90.71
76321;BME280;65132;52.088;5.402;2023-03-11T00:55:35;100902.25;;;0.71;90.30
76321;BME280;65132;52.088;5.402;2023-03-11T00:58:05;100908.22;;;0.76;90.27
76321;BME280;65132;52.088;5.402;2023-03-11T01:00:32;100910.94;;;0.74;90.12
76321;BME280;65132;52.088;5.402;2023-03-11T01:03:03;100912.56;;;0.77;89.73
76321;BME280;65132;52.088;5.402;2023-03-11T01:05:34;100903.88;;;0.73;89.57
76321;BME280;65132;52.088;5.402;2023-03-11T01:08:07;100918.16;;;0.72;89.27
76321;BME280;65132;52.088;5.402;2023-03-11T01:10:34;100916.63;;;0.84;88.54
76321;BME280;65132;52.088;5.402;2023-03-11T01:13:00;100919.66;;;0.78;89.16
76321;BME280;65132;52.088;5.402;2023-03-11T01:15:33;100919.72;;;0.76;89.28
76321;BME280;65132;52.088;5.402;2023-03-11T01:18:11;100917.91;;;0.77;88.58
76321;BME280;65132;52.088;5.402;2023-03-11T01:20:39;100926.75;;;0.77;88.61
76321;BME280;65132;52.088;5.402;2023-03-11T01:23:08;100939.13;;;0.78;88.74
76321;BME280;65132;52.088;5.402;2023-03-11T01:25:40;100936.47;;;0.78;88.88
76321;BME280;65132;52.088;5.402;2023-03-11T01:28:06;100930.28;;;0.78;88.82
76321;BME280;65132;52.088;5.402;2023-03-11T01:30:39;100936.47;;;0.78;87.79
76321;BME280;65132;52.088;5.402;2023-03-11T01:33:08;100937.66;;;0.73;88.60
76321;BME280;65132;52.088;5.402;2023-03-11T01:35:41;100941.59;;;0.66;88.98
76321;BME280;65132;52.088;5.402;2023-03-11T01:38:08;100947.63;;;0.69;89.38
76321;BME280;65132;52.088;5.402;2023-03-11T01:40:44;100945.13;;;0.66;89.51
76321;BME280;65132;52.088;5.402;2023-03-11T01:49:02;100943.72;;;0.59;90.28
76321;BME280;65132;52.088;5.402;2023-03-11T01:51:39;100954.34;;;0.59;90.56
76321;BME280;65132;52.088;5.402;2023-03-11T01:54:10;100945.59;;;0.57;91.31
76321;BME280;65132;52.088;5.402;2023-03-11T01:56:45;100935.84;;;0.56;91.18
76321;BME280;65132;52.088;5.402;2023-03-11T01:59:15;100944.78;;;0.55;91.49
76321;BME280;65132;52.088;5.402;2023-03-11T02:01:57;100944.00;;;0.53;91.13
76321;BME280;65132;52.088;5.402;2023-03-11T02:04:27;100947.22;;;0.60;91.68
76321;BME280;65132;52.088;5.402;2023-03-11T02:06:55;100953.75;;;0.54;92.00
76321;BME280;65132;52.088;5.402;2023-03-11T02:09:22;100947.47;;;0.55;92.86
76321;BME280;65132;52.088;5.402;2023-03-11T02:11:49;100945.75;;;0.54;92.32
76321;BME280;65132;52.088;5.402;2023-03-11T02:14:18;100945.03;;;0.51;91.17
76321;BME280;65132;52.088;5.402;2023-03-11T02:16:48;100946.75;;;0.52;91.73
76321;BME280;65132;52.088;5.402;2023-03-11T02:21:51;100965.09;;;0.58;90.83
76321;BME280;65132;52.088;5.402;2023-03-11T02:24:36;100962.47;;;0.56;90.63
76321;BME280;65132;52.088;5.402;2023-03-11T02:27:16;100968.66;;;0.57;90.70
76321;BME280;65132;52.088;5.402;2023-03-11T02:29:43;100963.50;;;0.54;90.22
76321;BME280;65132;52.088;5.402;2023-03-11T02:32:14;100965.72;;;0.63;89.19
76321;BME280;65132;52.088;5.402;2023-03-11T02:34:46;100970.25;;;0.61;89.08
76321;BME280;65132;52.088;5.402;2023-03-11T02:37:16;100966.81;;;0.59;89.31
76321;BME280;65132;52.088;5.402;2023-03-11T02:39:48;100966.72;;;0.60;90.00
76321;BME280;65132;52.088;5.402;2023-03-11T02:42:30;100970.41;;;0.58;89.13
76321;BME280;65132;52.088;5.402;2023-03-11T02:45:02;100961.47;;;0.59;89.39
76321;BME280;65132;52.088;5.402;2023-03-11T02:47:33;100963.34;;;0.57;89.34
76321;BME280;65132;52.088;5.402;2023-03-11T02:50:04;100953.75;;;0.54;89.65
76321;BME280;65132;52.088;5.402;2023-03-11T02:52:34;100954.56;;;0.55;89.68
76321;BME280;65132;52.088;5.402;2023-03-11T02:55:01;100966.25;;;0.52;89.36
76321;BME280;65132;52.088;5.402;2023-03-11T02:57:27;100962.97;;;0.47;90.00
76321;BME280;65132;52.088;5.402;2023-03-11T02:59:54;100959.69;;;0.42;90.30
76321;BME280;65132;52.088;5.402;2023-03-11T03:02:20;100966.88;;;0.40;90.44
76321;BME280;65132;52.088;5.402;2023-03-11T03:04:52;100962.72;;;0.35;90.72
76321;BME280;65132;52.088;5.402;2023-03-11T03:07:18;100969.00;;;0.34;89.34
76321;BME280;65132;52.088;5.402;2023-03-11T03:09:48;100971.66;;;0.34;89.55
76321;BME280;65132;52.088;5.402;2023-03-11T03:12:18;100968.44;;;0.27;89.58
76321;BME280;65132;52.088;5.402;2023-03-11T03:14:46;100976.88;;;0.18;89.60
76321;BME280;65132;52.088;5.402;2023-03-11T03:17:20;100985.84;;;0.16;89.25
76321;BME280;65132;52.088;5.402;2023-03-11T03:19:47;100992.47;;;0.07;89.50
76321;BME280;65132;52.088;5.402;2023-03-11T03:22:17;100990.13;;;0.01;90.10
76321;BME280;65132;52.088;5.402;2023-03-11T03:24:43;100987.75;;;-0.05;90.65
76321;BME280;65132;52.088;5.402;2023-03-11T03:27:12;100994.34;;;-0.12;90.93
76321;BME280;65132;52.088;5.402;2023-03-11T03:29:41;101000.81;;;-0.18;91.36
76321;BME280;65132;52.088;5.402;2023-03-11T03:32:07;100996.72;;;-0.25;91.54
76321;BME280;65132;52.088;5.402;2023-03-11T03:34:34;101004.03;;;-0.30;91.95
76321;BME280;65132;52.088;5.402;2023-03-11T03:37:03;101008.78;;;-0.36;92.63
76321;BME280;65132;52.088;5.402;2023-03-11T03:39:32;101004.75;;;-0.45;92.33
76321;BME280;65132;52.088;5.402;2023-03-11T03:41:59;101010.16;;;-0.46;92.78
76321;BME280;65132;52.088;5.402;2023-03-11T03:44:25;101024.50;;;-0.50;93.33
76321;BME280;65132;52.088;5.402;2023-03-11T03:46:55;101020.31;;;-0.56;93.54
76321;BME280;65132;52.088;5.402;2023-03-11T03:49:22;101027.66;;;-0.61;93.72
76321;BME280;65132;52.088;5.402;2023-03-11T03:51:49;101027.00;;;-0.66;93.60
76321;BME280;65132;52.088;5.402;2023-03-11T03:54:15;101031.88;;;-0.75;93.38
76321;BME280;65132;52.088;5.402;2023-03-11T03:56:48;101030.84;;;-0.73;94.14
76321;BME280;65132;52.088;5.402;2023-03-11T03:59:14;101038.00;;;-0.73;94.31
76321;BME280;65132;52.088;5.402;2023-03-11T04:01:41;101036.38;;;-0.77;94.29
76321;BME280;65132;52.088;5.402;2023-03-11T04:04:10;101041.94;;;-0.83;94.58
76321;BME280;65132;52.088;5.402;2023-03-11T04:06:36;101041.19;;;-0.85;94.94
76321;BME280;65132;52.088;5.402;2023-03-11T04:09:04;101042.97;;;-0.86;94.79
76321;BME280;65132;52.088;5.402;2023-03-11T04:11:31;101060.69;;;-0.86;95.32
76321;BME280;65132;52.088;5.402;2023-03-11T04:13:58;101053.66;;;-0.87;94.78
76321;BME280;65132;52.088;5.402;2023-03-11T04:16:24;101051.91;;;-0.88;95.33
76321;BME280;65132;52.088;5.402;2023-03-11T04:18:51;101050.22;;;-0.89;95.20
76321;BME280;65132;52.088;5.402;2023-03-11T04:21:19;101058.97;;;-0.87;95.50
76321;BME280;65132;52.088;5.402;2023-03-11T04:23:48;101058.03;;;-0.86;95.61
76321;BME280;65132;52.088;5.402;2023-03-11T04:26:15;101046.75;;;-0.91;95.35
76321;BME280;65132;52.088;5.402;2023-03-11T04:28:45;101057.31;;;-0.90;95.67
76321;BME280;65132;52.088;5.402;2023-03-11T04:31:12;101053.81;;;-0.90;95.28
76321;BME280;65132;52.088;5.402;2023-03-11T04:33:39;101053.16;;;-0.95;95.52
76321;BME280;65132;52.088;5.402;2023-03-11T04:36:06;101058.50;;;-0.97;95.23
76321;BME280;65132;52.088;5.402;2023-03-11T04:38:33;101052.59;;;-1.03;95.47
76321;BME280;65132;52.088;5.402;2023-03-11T04:41:04;101064.97;;;-1.02;95.32
76321;BME280;65132;52.088;5.402;2023-03-11T04:43:32;101065.94;;;-1.05;95.82
76321;BME280;65132;52.088;5.402;2023-03-11T04:45:59;101076.69;;;-1.08;95.49
76321;BME280;65132;52.088;5.402;2023-03-11T04:48:25;101072.44;;;-1.12;95.38
76321;BME280;65132;52.088;5.402;2023-03-11T04:50:54;101066.41;;;-1.15;95.22
76321;BME280;65132;52.088;5.402;2023-03-11T04:53:23;101071.84;;;-1.18;95.62
76321;BME280;65132;52.088;5.402;2023-03-11T04:55:50;101075.53;;;-1.23;95.63
76321;BME280;65132;52.088;5.402;2023-03-11T04:58:21;101083.66;;;-1.26;96.11
76321;BME280;65132;52.088;5.402;2023-03-11T05:00:48;101086.50;;;-1.30;95.79
76321;BME280;65132;52.088;5.402;2023-03-11T05:03:14;101085.69;;;-1.32;96.20
76321;BME280;65132;52.088;5.402;2023-03-11T05:05:42;101082.31;;;-1.36;96.41
76321;BME280;65132;52.088;5.402;2023-03-11T05:08:13;101088.78;;;-1.43;96.08
76321;BME280;65132;52.088;5.402;2023-03-11T05:10:40;101074.63;;;-1.42;96.67
76321;BME280;65132;52.088;5.402;2023-03-11T05:13:09;101078.91;;;-1.39;96.84
76321;BME280;65132;52.088;5.402;2023-03-11T05:15:36;101078.09;;;-1.41;96.53
76321;BME280;65132;52.088;5.402;2023-03-11T05:18:05;101083.63;;;-1.46;96.38
76321;BME280;65132;52.088;5.402;2023-03-11T05:20:32;101084.72;;;-1.51;96.64
76321;BME280;65132;52.088;5.402;2023-03-11T05:22:59;101085.72;;;-1.54;97.40
76321;BME280;65132;52.088;5.402;2023-03-11T05:25:33;101088.38;;;-1.54;97.44
76321;BME280;65132;52.088;5.402;2023-03-11T05:28:06;101094.66;;;-1.56;97.27
76321;BME280;65132;52.088;5.402;2023-03-11T05:30:35;101104.38;;;-1.55;97.46
76321;BME280;65132;52.088;5.402;2023-03-11T05:33:02;101100.97;;;-1.59;96.90
76321;BME280;65132;52.088;5.402;2023-03-11T05:35:28;101105.41;;;-1.59;97.12
76321;BME280;65132;52.088;5.402;2023-03-11T05:38:02;101104.59;;;-1.61;97.08
76321;BME280;65132;52.088;5.402;2023-03-11T05:40:34;101106.44;;;-1.63;96.57
76321;BME280;65132;52.088;5.402;2023-03-11T05:43:05;101114.66;;;-1.69;96.17
76321;BME280;65132;52.088;5.402;2023-03-11T05:45:35;101109.53;;;-1.74;96.25
76321;BME280;65132;52.088;5.402;2023-03-11T05:48:02;101123.66;;;-1.73;96.55
76321;BME280;65132;52.088;5.402;2023-03-11T05:50:42;101126.44;;;-1.76;96.57
76321;BME280;65132;52.088;5.402;2023-03-11T05:53:08;101123.72;;;-1.75;96.38
76321;BME280;65132;52.088;5.402;2023-03-11T05:55:37;101126.44;;;-1.76;96.55
76321;BME280;65132;52.088;5.402;2023-03-11T05:58:03;101120.38;;;-1.80;95.94
76321;BME280;65132;52.088;5.402;2023-03-11T06:00:32;101135.34;;;-1.79;96.46
76321;BME280;65132;52.088;5.402;2023-03-11T06:03:02;101137.22;;;-1.81;96.67
76321;BME280;65132;52.088;5.402;2023-03-11T06:05:28;101133.69;;;-1.81;96.39
76321;BME280;65132;52.088;5.402;2023-03-11T06:07:56;101141.59;;;-1.80;96.86
76321;BME280;65132;52.088;5.402;2023-03-11T06:10:22;101133.69;;;-1.81;96.61
76321;BME280;65132;52.088;5.402;2023-03-11T06:12:54;101148.69;;;-1.80;96.60
76321;BME280;65132;52.088;5.402;2023-03-11T06:15:20;101148.63;;;-1.79;96.59
76321;BME280;65132;52.088;5.402;2023-03-11T06:17:47;101147.66;;;-1.76;96.82
76321;BME280;65132;52.088;5.402;2023-03-11T06:20:16;101146.78;;;-1.77;95.61
76321;BME280;65132;52.088;5.402;2023-03-11T06:22:46;101151.03;;;-1.73;95.70
76321;BME280;65132;52.088;5.402;2023-03-11T06:25:13;101157.09;;;-1.69;95.81
76321;BME280;65132;52.088;5.402;2023-03-11T06:27:42;101157.09;;;-1.69;95.37
76321;BME280;65132;52.088;5.402;2023-03-11T06:30:09;101162.16;;;-1.63;95.46
76321;BME280;65132;52.088;5.402;2023-03-11T06:32:36;101169.06;;;-1.59;95.23
76321;BME280;65132;52.088;5.402;2023-03-11T06:35:03;101174.13;;;-1.53;94.79
76321;BME280;65132;52.088;5.402;2023-03-11T06:37:35;101178.41;;;-1.49;93.88
76321;BME280;65132;52.088;5.402;2023-03-11T06:40:02;101183.47;;;-1.43;93.91
76321;BME280;65132;52.088;5.402;2023-03-11T06:42:35;101186.63;;;-1.34;93.49
76321;BME280;65132;52.088;5.402;2023-03-11T06:45:04;101176.25;;;-1.18;93.30
76321;BME280;65132;52.088;5.402;2023-03-11T06:47:32;101179.81;;;-0.97;92.64
76321;BME280;65132;52.088;5.402;2023-03-11T06:50:01;101175.53;;;-0.60;90.91
76321;BME280;65132;52.088;5.402;2023-03-11T06:52:28;101171.88;;;0.02;90.09
76321;BME280;65132;52.088;5.402;2023-03-11T06:54:56;101177.16;;;0.40;86.78
76321;BME280;65132;52.088;5.402;2023-03-11T06:57:25;101181.47;;;0.78;85.56
76321;BME280;65132;52.088;5.402;2023-03-11T06:59:51;101179.34;;;0.68;84.99
76321;BME280;65132;52.088;5.402;2023-03-11T07:02:21;101176.41;;;0.55;84.66
76321;BME280;65132;52.088;5.402;2023-03-11T07:04:49;101170.00;;;0.59;84.83
76321;BME280;65132;52.088;5.402;2023-03-11T07:07:15;101183.22;;;0.79;83.59
76321;BME280;65132;52.088;5.402;2023-03-11T07:09:42;101192.66;;;0.86;83.91
76321;BME280;65132;52.088;5.402;2023-03-11T07:12:09;101200.19;;;1.12;83.66
76321;BME280;65132;52.088;5.402;2023-03-11T07:14:38;101190.22;;;0.99;83.18
76321;BME280;65132;52.088;5.402;2023-03-11T07:17:06;101192.63;;;1.22;83.54
76321;BME280;65132;52.088;5.402;2023-03-11T07:19:32;101209.72;;;1.35;83.06
76321;BME280;65132;52.088;5.402;2023-03-11T07:21:59;101204.78;;;1.28;82.96
76321;BME280;65132;52.088;5.402;2023-03-11T07:24:28;101214.88;;;1.38;84.58
76321;BME280;65132;52.088;5.402;2023-03-11T07:26:59;101212.13;;;1.57;84.25
76321;BME280;65132;52.088;5.402;2023-03-11T07:29:29;101222.69;;;1.60;83.80
76321;BME280;65132;52.088;5.402;2023-03-11T07:31:55;101222.78;;;1.91;82.42
76321;BME280;65132;52.088;5.402;2023-03-11T07:34:24;101227.00;;;2.12;82.79
76321;BME280;65132;52.088;5.402;2023-03-11T07:36:50;101226.53;;;2.21;81.87
76321;BME280;65132;52.088;5.402;2023-03-11T07:39:17;101235.22;;;2.24;82.06
76321;BME280;65132;52.088;5.402;2023-03-11T07:41:44;101225.47;;;2.23;81.29
76321;BME280;65132;52.088;5.402;2023-03-11T07:44:13;101227.41;;;2.37;80.06
76321;BME280;65132;52.088;5.402;2023-03-11T07:46:44;101218.13;;;2.60;78.85
76321;BME280;65132;52.088;5.402;2023-03-11T07:49:11;101228.41;;;2.67;78.00
76321;BME280;65132;52.088;5.402;2023-03-11T07:51:38;101220.66;;;2.78;77.93
76321;BME280;65132;52.088;5.402;2023-03-11T07:54:05;101232.53;;;2.88;77.74
76321;BME280;65132;52.088;5.402;2023-03-11T07:56:34;101234.00;;;3.09;76.82
76321;BME280;65132;52.088;5.402;2023-03-11T07:59:07;101231.75;;;3.17;76.56
76321;BME280;65132;52.088;5.402;2023-03-11T08:01:33;101244.25;;;3.17;75.56
76321;BME280;65132;52.088;5.402;2023-03-11T08:04:10;101245.78;;;3.36;75.59
76321;BME280;65132;52.088;5.402;2023-03-11T08:06:45;101253.16;;;3.62;75.86
76321;BME280;65132;52.088;5.402;2023-03-11T08:09:14;101253.75;;;3.67;75.15
76321;BME280;65132;52.088;5.402;2023-03-11T08:11:40;101253.94;;;3.79;74.82
76321;BME280;65132;52.088;5.402;2023-03-11T08:14:08;101248.00;;;4.03;74.91
76321;BME280;65132;52.088;5.402;2023-03-11T08:16:38;101256.13;;;4.16;75.19
76321;BME280;65132;52.088;5.402;2023-03-11T08:19:11;101252.13;;;4.65;74.82
76321;BME280;65132;52.088;5.402;2023-03-11T08:21:40;101258.28;;;5.08;71.22
76321;BME280;65132;52.088;5.402;2023-03-11T08:24:10;101258.78;;;5.00;69.69
76321;BME280;65132;52.088;5.402;2023-03-11T08:26:39;101258.03;;;5.25;69.33
76321;BME280;65132;52.088;5.402;2023-03-11T08:29:09;101252.53;;;5.40;68.30
76321;BME280;65132;52.088;5.402;2023-03-11T08:31:38;101259.16;;;5.61;67.26
76321;BME280;65132;52.088;5.402;2023-03-11T08:34:07;101261.84;;;5.88;65.81
76321;BME280;65132;52.088;5.402;2023-03-11T08:36:34;101262.84;;;6.12;62.00
76321;BME280;65132;52.088;5.402;2023-03-11T08:39:00;101252.44;;;6.33;63.73
76321;BME280;65132;52.088;5.402;2023-03-11T08:41:27;101261.00;;;6.63;62.60
76321;BME280;65132;52.088;5.402;2023-03-11T08:43:56;101257.84;;;7.06;61.24
76321;BME280;65132;52.088;5.402;2023-03-11T08:46:34;101264.47;;;7.13;58.44
76321;BME280;65132;52.088;5.402;2023-03-11T08:49:05;101263.22;;;7.06;60.85
76321;BME280;65132;52.088;5.402;2023-03-11T08:51:33;101272.38;;;6.91;58.37
76321;BME280;65132;52.088;5.402;2023-03-11T08:54:02;101261.19;;;6.85;58.09
76321;BME280;65132;52.088;5.402;2023-03-11T08:56:29;101260.88;;;6.89;58.49
76321;BME280;65132;52.088;5.402;2023-03-11T08:58:56;101261.81;;;7.37;59.89
76321;BME280;65132;52.088;5.402;2023-03-11T09:01:22;101268.72;;;6.92;57.97
76321;BME280;65132;52.088;5.402;2023-03-11T09:03:49;101267.59;;;7.44;55.97
76321;BME280;65132;52.088;5.402;2023-03-11T09:06:20;101286.63;;;7.17;51.04
76321;BME280;65132;52.088;5.402;2023-03-11T09:08:47;101288.09;;;7.34;53.39
76321;BME280;65132;52.088;5.402;2023-03-11T09:11:16;101295.31;;;7.80;53.81
76321;BME280;65132;52.088;5.402;2023-03-11T09:13:45;101291.44;;;7.84;55.99
76321;BME280;65132;52.088;5.402;2023-03-11T09:16:16;101297.38;;;7.17;56.08
76321;BME280;65132;52.088;5.402;2023-03-11T09:18:45;101298.69;;;7.48;52.01
76321;BME280;65132;52.088;5.402;2023-03-11T09:21:16;101307.03;;;6.96;50.97
76321;BME280;65132;52.088;5.402;2023-03-11T09:23:43;101311.69;;;6.69;51.26
76321;BME280;65132;52.088;5.402;2023-03-11T09:26:13;101306.75;;;6.50;51.85
76321;BME280;65132;52.088;5.402;2023-03-11T09:28:41;101305.41;;;6.93;50.88
76321;BME280;65132;52.088;5.402;2023-03-11T09:31:08;101308.88;;;6.70;49.29
76321;BME280;65132;52.088;5.402;2023-03-11T09:33:37;101316.75;;;6.48;54.85
76321;BME280;65132;52.088;5.402;2023-03-11T09:36:04;101297.69;;;6.39;53.21
76321;BME280;65132;52.088;5.402;2023-03-11T09:38:32;101310.91;;;6.29;53.76
76321;BME280;65132;52.088;5.402;2023-03-11T09:41:05;101304.69;;;6.41;55.76
76321;BME280;65132;52.088;5.402;2023-03-11T09:43:43;101304.00;;;6.25;53.61
76321;BME280;65132;52.088;5.402;2023-03-11T09:48:50;101302.94;;;6.90;52.96
76321;BME280;65132;52.088;5.402;2023-03-11T09:51:26;101303.75;;;7.76;51.02
76321;BME280;65132;52.088;5.402;2023-03-11T09:54:03;101307.00;;;8.72;51.63
76321;BME280;65132;52.088;5.402;2023-03-11T09:56:30;101294.00;;;8.66;48.28
76321;BME280;65132;52.088;5.402;2023-03-11T10:01:35;101300.06;;;9.56;47.50
76321;BME280;65132;52.088;5.402;2023-03-11T10:04:16;101299.00;;;9.37;52.72
76321;BME280;65132;52.088;5.402;2023-03-11T10:06:46;101294.75;;;9.66;46.84
76321;BME280;65132;52.088;5.402;2023-03-11T10:09:34;101302.44;;;9.82;47.41
76321;BME280;65132;52.088;5.402;2023-03-11T10:17:25;101315.94;;;9.39;48.49
76321;BME280;65132;52.088;5.402;2023-03-11T10:20:09;101312.16;;;9.19;48.91
76321;BME280;65132;52.088;5.402;2023-03-11T10:28:15;101321.06;;;8.42;50.38
76321;BME280;65132;52.088;5.402;2023-03-11T10:30:55;101318.50;;;7.83;56.22
76321;BME280;65132;52.088;5.402;2023-03-11T10:33:38;101317.53;;;8.18;51.29
76321;BME280;65132;52.088;5.402;2023-03-11T10:36:16;101315.00;;;8.28;54.38
76321;BME280;65132;52.088;5.402;2023-03-11T10:38:47;101310.03;;;8.45;53.48
76321;BME280;65132;52.088;5.402;2023-03-11T10:44:45;101316.22;;;8.70;47.05
76321;BME280;65132;52.088;5.402;2023-03-11T10:47:23;101321.91;;;8.32;48.69
76321;BME280;65132;52.088;5.402;2023-03-11T10:49:53;101312.44;;;8.26;52.12
76321;BME280;65132;52.088;5.402;2023-03-11T10:52:19;101306.66;;;9.21;51.16
76321;BME280;65132;52.088;5.402;2023-03-11T10:54:47;101301.63;;;9.70;48.30
76321;BME280;65132;52.088;5.402;2023-03-11T10:59:58;101309.31;;;9.43;48.68
76321;BME280;65132;52.088;5.402;2023-03-11T11:02:32;101312.66;;;9.13;49.09
76321;BME280;65132;52.088;5.402;2023-03-11T11:07:48;101316.88;;;10.55;45.86
76321;BME280;65132;52.088;5.402;2023-03-11T11:10:22;101308.44;;;10.99;43.17
76321;BME280;65132;52.088;5.402;2023-03-11T11:12:57;101309.25;;;11.20;42.87
76321;BME280;65132;52.088;5.402;2023-03-11T11:18:03;101311.22;;;11.18;46.60
76321;BME280;65132;52.088;5.402;2023-03-11T11:20:32;101303.41;;;11.83;40.52
76321;BME280;65132;52.088;5.402;2023-03-11T11:23:02;101307.50;;;12.73;41.02
76321;BME280;65132;52.088;5.402;2023-03-11T11:25:34;101313.47;;;10.83;42.23
76321;BME280;65132;52.088;5.402;2023-03-11T11:30:54;101308.59;;;12.80;40.95
76321;BME280;65132;52.088;5.402;2023-03-11T11:33:47;101312.56;;;12.49;40.77
76321;BME280;65132;52.088;5.402;2023-03-11T11:36:15;101306.50;;;12.74;37.88
76321;BME280;65132;52.088;5.402;2023-03-11T11:38:50;101306.38;;;12.57;43.14
76321;BME280;65132;52.088;5.402;2023-03-11T11:41:22;101321.88;;;10.07;44.07
76321;BME280;65132;52.088;5.402;2023-03-11T11:43:55;101314.34;;;9.47;47.01
76321;BME280;65132;52.088;5.402;2023-03-11T11:46:27;101310.00;;;11.32;41.54
76321;BME280;65132;52.088;5.402;2023-03-11T11:49:07;101305.44;;;12.10;41.97
76321;BME280;65132;52.088;5.402;2023-03-11T11:54:17;101313.13;;;12.43;40.61
76321;BME280;65132;52.088;5.402;2023-03-11T11:56:49;101304.31;;;12.87;40.05
76321;BME280;65132;52.088;5.402;2023-03-11T11:59:19;101315.16;;;11.44;40.85
76321;BME280;65132;52.088;5.402;2023-03-11T12:04:52;101315.06;;;13.26;37.00
76321;BME280;65132;52.088;5.402;2023-03-11T12:07:49;101308.84;;;12.02;40.47
76321;BME280;65132;52.088;5.402;2023-03-11T12:13:47;101305.44;;;12.00;36.93
76321;BME280;65132;52.088;5.402;2023-03-11T12:16:30;101310.19;;;12.83;39.71
76321;BME280;65132;52.088;5.402;2023-03-11T12:19:34;101305.34;;;13.77;34.64
76321;BME280;65132;52.088;5.402;2023-03-11T12:22:32;101298.13;;;14.03;35.57
76321;BME280;65132;52.088;5.402;2023-03-11T12:25:22;101291.63;;;15.08;33.28
76321;BME280;65132;52.088;5.402;2023-03-11T12:27:56;101288.28;;;13.58;37.09
76321;BME280;65132;52.088;5.402;2023-03-11T12:30:32;101290.13;;;14.63;36.04
76321;BME280;65132;52.088;5.402;2023-03-11T12:33:10;101292.81;;;14.02;33.57
76321;BME280;65132;52.088;5.402;2023-03-11T12:35:47;101285.66;;;13.39;32.57
76321;BME280;65132;52.088;5.402;2023-03-11T12:41:07;101286.13;;;15.34;30.94
76321;BME280;65132;52.088;5.402;2023-03-11T12:49:28;101287.38;;;16.05;29.66
76321;BME280;65132;52.088;5.402;2023-03-11T12:52:23;101276.66;;;16.36;28.92
76321;BME280;65132;52.088;5.402;2023-03-11T12:57:39;101275.03;;;17.44;26.78
76321;BME280;65132;52.088;5.402;2023-03-11T13:00:24;101275.44;;;16.79;27.17
76321;BME280;65132;52.088;5.402;2023-03-11T13:03:20;101284.75;;;14.71;30.16
76321;BME280;65132;52.088;5.402;2023-03-11T13:06:12;101290.31;;;13.73;30.59
76321;BME280;65132;52.088;5.402;2023-03-11T13:08:48;101282.34;;;15.27;28.53
76321;BME280;65132;52.088;5.402;2023-03-11T13:14:22;101288.13;;;13.32;31.47
76321;BME280;65132;52.088;5.402;2023-03-11T13:16:52;101284.66;;;13.67;31.95
76321;BME280;65132;52.088;5.402;2023-03-11T13:21:57;101280.50;;;15.02;28.28
76321;BME280;65132;52.088;5.402;2023-03-11T13:34:57;101272.38;;;15.10;29.88
76321;BME280;65132;52.088;5.402;2023-03-11T13:37:34;101277.41;;;15.72;28.30
76321;BME280;65132;52.088;5.402;2023-03-11T13:43:02;101277.88;;;13.71;31.83
76321;BME280;65132;52.088;5.402;2023-03-11T13:45:32;101273.69;;;13.04;30.98
76321;BME280;65132;52.088;5.402;2023-03-11T13:48:03;101278.00;;;13.24;31.34
76321;BME280;65132;52.088;5.402;2023-03-11T13:50:53;101275.69;;;14.62;29.22
76321;BME280;65132;52.088;5.402;2023-03-11T13:53:29;101281.06;;;16.21;27.18
76321;BME280;65132;52.088;5.402;2023-03-11T13:55:57;101266.03;;;16.81;27.24
76321;BME280;65132;52.088;5.402;2023-03-11T13:58:31;101278.00;;;16.64;24.14
76321;BME280;65132;52.088;5.402;2023-03-11T14:01:01;101271.97;;;15.80;25.58
76321;BME280;65132;52.088;5.402;2023-03-11T14:03:33;101287.19;;;14.82;27.47
76321;BME280;65132;52.088;5.402;2023-03-11T14:06:04;101289.47;;;14.61;30.06
76321;BME280;65132;52.088;5.402;2023-03-11T14:08:36;101286.84;;;13.09;29.28
76321;BME280;65132;52.088;5.402;2023-03-11T14:13:38;101298.38;;;12.55;32.65
76321;BME280;65132;52.088;5.402;2023-03-11T14:16:20;101301.59;;;12.22;32.32
76321;BME280;65132;52.088;5.402;2023-03-11T14:21:27;101299.72;;;13.07;31.39
76321;BME280;65132;52.088;5.402;2023-03-11T14:23:54;101290.25;;;14.35;29.85
76321;BME280;65132;52.088;5.402;2023-03-11T14:26:33;101303.00;;;14.53;28.63
76321;BME280;65132;52.088;5.402;2023-03-11T14:29:07;101302.41;;;14.84;28.62
76321;BME280;65132;52.088;5.402;2023-03-11T14:31:39;101301.56;;;14.66;29.70
76321;BME280;65132;52.088;5.402;2023-03-11T14:39:33;101315.38;;;10.92;35.93
76321;BME280;65132;52.088;5.402;2023-03-11T14:42:30;101312.56;;;11.82;33.84